sensor_id;sensor_type;location;lat;lon;timestamp;P1;durP1;ratioP1;P2;durP2;ratioP2
30647;SDS011;17683;53.360;9.736;2022-12-16T00:00:21;36.63;;;20.83;;
30647;SDS011;17683;53.360;9.736;2022-12-16T00:02:47;35.33;;;21.27;;
30647;SDS011;17683;53.360;9.736;2022-12-16T00:05:13;38.47;;;20.55;;
30647;SDS011;17683;53.360;9.736;2022-12-16T00:07:39;39.05;;;21.00;;
30647;SDS011;17683;53.360;9.736;2022-12-16T00:10:05;36.78;;;21.15;;
30647;SDS011;17683;53.360;9.736;2022-12-16T00:12:31;36.95;;;20.33;;
30647;SDS011;17683;53.360;9.736;2022-12-16T00:14:57;36.55;;;20.80;;
30647;SDS011;17683;53.360;9.736;2022-12-16T00:17:23;41.97;;;22.02;;
30647;SDS011;17683;53.360;9.736;2022-12-16T00:19:49;34.58;;;20.83;;
30647;SDS011;17683;53.360;9.736;2022-12-16T00:22:14;39.95;;;21.77;;
30647;SDS011;17683;53.360;9.736;2022-12-16T00:24:40;36.13;;;20.40;;
30647;SDS011;17683;53.360;9.736;2022-12-16T00:27:06;33.20;;;20.35;;
30647;SDS011;17683;53.360;9.736;2022-12-16T00:29:31;34.38;;;20.00;;
30647;SDS011;17683;53.360;9.736;2022-12-16T00:31:57;40.92;;;22.13;;
30647;SDS011;17683;53.360;9.736;2022-12-16T00:34:23;37.08;;;20.83;;
30647;SDS011;17683;53.360;9.736;2022-12-16T00:36:49;37.08;;;21.20;;
30647;SDS011;17683;53.360;9.736;2022-12-16T00:39:15;39.42;;;20.77;;
30647;SDS011;17683;53.360;9.736;2022-12-16T00:41:40;32.72;;;20.92;;
30647;SDS011;17683;53.360;9.736;2022-12-16T00:44:06;34.53;;;20.67;;
30647;SDS011;17683;53.360;9.736;2022-12-16T00:46:32;32.67;;;19.17;;
30647;SDS011;17683;53.360;9.736;2022-12-16T00:48:57;34.95;;;21.70;;
30647;SDS011;17683;53.360;9.736;2022-12-16T00:51:23;37.03;;;21.45;;
30647;SDS011;17683;53.360;9.736;2022-12-16T00:53:49;34.40;;;20.08;;
30647;SDS011;17683;53.360;9.736;2022-12-16T00:56:15;32.92;;;20.13;;
30647;SDS011;17683;53.360;9.736;2022-12-16T00:58:44;35.97;;;20.05;;
30647;SDS011;17683;53.360;9.736;2022-12-16T01:01:09;31.38;;;19.00;;
30647;SDS011;17683;53.360;9.736;2022-12-16T01:03:36;29.67;;;17.90;;
30647;SDS011;17683;53.360;9.736;2022-12-16T01:06:09;32.65;;;19.73;;
30647;SDS011;17683;53.360;9.736;2022-12-16T01:08:37;31.77;;;19.98;;
30647;SDS011;17683;53.360;9.736;2022-12-16T01:11:03;30.42;;;19.05;;
30647;SDS011;17683;53.360;9.736;2022-12-16T01:13:29;30.42;;;18.63;;
30647;SDS011;17683;53.360;9.736;2022-12-16T01:15:58;30.60;;;18.20;;
30647;SDS011;17683;53.360;9.736;2022-12-16T01:18:24;38.55;;;20.52;;
30647;SDS011;17683;53.360;9.736;2022-12-16T01:20:50;30.67;;;17.90;;
30647;SDS011;17683;53.360;9.736;2022-12-16T01:23:15;35.95;;;19.88;;
30647;SDS011;17683;53.360;9.736;2022-12-16T01:25:41;34.03;;;20.52;;
30647;SDS011;17683;53.360;9.736;2022-12-16T01:28:07;29.67;;;19.17;;
30647;SDS011;17683;53.360;9.736;2022-12-16T01:30:33;35.42;;;18.55;;
30647;SDS011;17683;53.360;9.736;2022-12-16T01:32:59;33.03;;;19.13;;
30647;SDS011;17683;53.360;9.736;2022-12-16T01:35:24;29.77;;;19.35;;
30647;SDS011;17683;53.360;9.736;2022-12-16T01:37:50;35.20;;;19.40;;
30647;SDS011;17683;53.360;9.736;2022-12-16T01:40:18;31.83;;;19.25;;
30647;SDS011;17683;53.360;9.736;2022-12-16T01:42:45;32.42;;;19.60;;
30647;SDS011;17683;53.360;9.736;2022-12-16T01:45:30;33.75;;;19.27;;
30647;SDS011;17683;53.360;9.736;2022-12-16T01:47:59;33.08;;;17.85;;
30647;SDS011;17683;53.360;9.736;2022-12-16T01:50:29;33.45;;;19.13;;
30647;SDS011;17683;53.360;9.736;2022-12-16T01:52:56;32.03;;;18.20;;
30647;SDS011;17683;53.360;9.736;2022-12-16T01:55:30;31.73;;;19.60;;
30647;SDS011;17683;53.360;9.736;2022-12-16T01:58:04;34.58;;;20.08;;
30647;SDS011;17683;53.360;9.736;2022-12-16T02:00:33;30.33;;;17.40;;
30647;SDS011;17683;53.360;9.736;2022-12-16T02:03:01;28.27;;;18.23;;
30647;SDS011;17683;53.360;9.736;2022-12-16T02:05:27;33.15;;;18.38;;
30647;SDS011;17683;53.360;9.736;2022-12-16T02:19:29;29.92;;;19.20;;
30647;SDS011;17683;53.360;9.736;2022-12-16T02:34:56;29.25;;;17.98;;
30647;SDS011;17683;53.360;9.736;2022-12-16T02:37:32;33.80;;;18.95;;
30647;SDS011;17683;53.360;9.736;2022-12-16T02:40:06;29.27;;;18.05;;
30647;SDS011;17683;53.360;9.736;2022-12-16T02:42:43;32.30;;;19.83;;
30647;SDS011;17683;53.360;9.736;2022-12-16T02:45:14;32.10;;;19.30;;
30647;SDS011;17683;53.360;9.736;2022-12-16T02:47:42;34.10;;;17.98;;
30647;SDS011;17683;53.360;9.736;2022-12-16T02:53:02;28.95;;;16.95;;
30647;SDS011;17683;53.360;9.736;2022-12-16T02:55:35;35.25;;;19.27;;
30647;SDS011;17683;53.360;9.736;2022-12-16T02:58:33;29.85;;;17.67;;
30647;SDS011;17683;53.360;9.736;2022-12-16T03:06:55;31.38;;;18.33;;
30647;SDS011;17683;53.360;9.736;2022-12-16T03:09:25;31.48;;;18.27;;
30647;SDS011;17683;53.360;9.736;2022-12-16T03:11:54;27.92;;;17.88;;
30647;SDS011;17683;53.360;9.736;2022-12-16T03:14:22;33.13;;;18.50;;
30647;SDS011;17683;53.360;9.736;2022-12-16T03:16:51;33.67;;;17.75;;
30647;SDS011;17683;53.360;9.736;2022-12-16T03:19:17;33.78;;;19.15;;
30647;SDS011;17683;53.360;9.736;2022-12-16T03:21:51;34.08;;;19.85;;
30647;SDS011;17683;53.360;9.736;2022-12-16T03:29:40;29.55;;;18.48;;
30647;SDS011;17683;53.360;9.736;2022-12-16T03:32:23;33.75;;;18.23;;
30647;SDS011;17683;53.360;9.736;2022-12-16T03:35:13;33.55;;;19.33;;
30647;SDS011;17683;53.360;9.736;2022-12-16T03:37:43;34.92;;;18.67;;
30647;SDS011;17683;53.360;9.736;2022-12-16T03:40:12;33.20;;;18.77;;
30647;SDS011;17683;53.360;9.736;2022-12-16T03:42:39;29.67;;;18.48;;
30647;SDS011;17683;53.360;9.736;2022-12-16T03:45:06;30.60;;;17.98;;
30647;SDS011;17683;53.360;9.736;2022-12-16T03:47:37;30.10;;;17.45;;
30647;SDS011;17683;53.360;9.736;2022-12-16T03:50:04;36.67;;;19.35;;
30647;SDS011;17683;53.360;9.736;2022-12-16T03:52:30;36.17;;;20.38;;
30647;SDS011;17683;53.360;9.736;2022-12-16T03:54:56;31.80;;;18.52;;
30647;SDS011;17683;53.360;9.736;2022-12-16T03:57:22;29.98;;;17.85;;
30647;SDS011;17683;53.360;9.736;2022-12-16T03:59:48;27.20;;;17.50;;
30647;SDS011;17683;53.360;9.736;2022-12-16T04:02:13;30.45;;;17.75;;
30647;SDS011;17683;53.360;9.736;2022-12-16T04:04:39;29.92;;;17.35;;
30647;SDS011;17683;53.360;9.736;2022-12-16T04:07:05;33.70;;;18.65;;
30647;SDS011;17683;53.360;9.736;2022-12-16T04:09:49;27.20;;;16.73;;
30647;SDS011;17683;53.360;9.736;2022-12-16T04:12:16;31.88;;;16.98;;
30647;SDS011;17683;53.360;9.736;2022-12-16T04:15:00;33.50;;;17.95;;
30647;SDS011;17683;53.360;9.736;2022-12-16T04:17:44;36.97;;;18.35;;
30647;SDS011;17683;53.360;9.736;2022-12-16T04:20:31;28.98;;;16.80;;
30647;SDS011;17683;53.360;9.736;2022-12-16T04:23:19;31.85;;;17.75;;
30647;SDS011;17683;53.360;9.736;2022-12-16T04:26:04;27.08;;;16.63;;
30647;SDS011;17683;53.360;9.736;2022-12-16T04:28:30;29.23;;;16.40;;
30647;SDS011;17683;53.360;9.736;2022-12-16T04:30:55;31.85;;;15.82;;
30647;SDS011;17683;53.360;9.736;2022-12-16T04:33:22;38.17;;;17.35;;
30647;SDS011;17683;53.360;9.736;2022-12-16T04:36:07;31.42;;;16.73;;
30647;SDS011;17683;53.360;9.736;2022-12-16T04:38:51;33.30;;;17.48;;
30647;SDS011;17683;53.360;9.736;2022-12-16T04:41:35;28.40;;;15.90;;
30647;SDS011;17683;53.360;9.736;2022-12-16T04:44:20;30.33;;;16.88;;
30647;SDS011;17683;53.360;9.736;2022-12-16T04:47:04;29.55;;;16.83;;
30647;SDS011;17683;53.360;9.736;2022-12-16T04:49:48;27.75;;;17.10;;
30647;SDS011;17683;53.360;9.736;2022-12-16T04:52:32;34.33;;;18.38;;
30647;SDS011;17683;53.360;9.736;2022-12-16T04:55:16;34.03;;;16.98;;
30647;SDS011;17683;53.360;9.736;2022-12-16T04:58:01;31.75;;;17.17;;
30647;SDS011;17683;53.360;9.736;2022-12-16T05:00:47;28.13;;;15.93;;
30647;SDS011;17683;53.360;9.736;2022-12-16T05:03:32;29.05;;;17.25;;
30647;SDS011;17683;53.360;9.736;2022-12-16T05:06:16;30.90;;;17.45;;
30647;SDS011;17683;53.360;9.736;2022-12-16T05:11:46;28.42;;;16.40;;
30647;SDS011;17683;53.360;9.736;2022-12-16T05:17:15;38.53;;;19.17;;
30647;SDS011;17683;53.360;9.736;2022-12-16T05:19:59;25.63;;;16.10;;
30647;SDS011;17683;53.360;9.736;2022-12-16T05:25:27;26.92;;;15.48;;
30647;SDS011;17683;53.360;9.736;2022-12-16T05:28:12;26.70;;;15.48;;
30647;SDS011;17683;53.360;9.736;2022-12-16T05:30:56;32.67;;;17.52;;
30647;SDS011;17683;53.360;9.736;2022-12-16T05:33:40;32.38;;;17.27;;
30647;SDS011;17683;53.360;9.736;2022-12-16T05:39:09;29.17;;;16.13;;
30647;SDS011;17683;53.360;9.736;2022-12-16T05:44:38;30.33;;;15.75;;
30647;SDS011;17683;53.360;9.736;2022-12-16T05:47:22;33.55;;;16.73;;
30647;SDS011;17683;53.360;9.736;2022-12-16T05:52:51;32.55;;;16.70;;
30647;SDS011;17683;53.360;9.736;2022-12-16T05:55:37;31.63;;;15.88;;
30647;SDS011;17683;53.360;9.736;2022-12-16T05:58:21;30.92;;;15.25;;
30647;SDS011;17683;53.360;9.736;2022-12-16T06:01:05;31.17;;;16.77;;
30647;SDS011;17683;53.360;9.736;2022-12-16T06:06:33;31.65;;;16.60;;
30647;SDS011;17683;53.360;9.736;2022-12-16T06:09:17;29.83;;;16.95;;
30647;SDS011;17683;53.360;9.736;2022-12-16T06:12:02;35.95;;;18.10;;
30647;SDS011;17683;53.360;9.736;2022-12-16T06:14:46;32.28;;;16.60;;
30647;SDS011;17683;53.360;9.736;2022-12-16T06:20:14;27.60;;;15.32;;
30647;SDS011;17683;53.360;9.736;2022-12-16T06:22:59;30.73;;;16.35;;
30647;SDS011;17683;53.360;9.736;2022-12-16T06:25:43;38.80;;;17.10;;
30647;SDS011;17683;53.360;9.736;2022-12-16T06:28:27;29.35;;;15.77;;
30647;SDS011;17683;53.360;9.736;2022-12-16T06:31:11;26.67;;;14.43;;
30647;SDS011;17683;53.360;9.736;2022-12-16T06:36:40;28.50;;;14.38;;
30647;SDS011;17683;53.360;9.736;2022-12-16T06:39:24;29.80;;;16.30;;
30647;SDS011;17683;53.360;9.736;2022-12-16T06:42:23;26.90;;;16.02;;
30647;SDS011;17683;53.360;9.736;2022-12-16T06:47:51;30.80;;;14.50;;
30647;SDS011;17683;53.360;9.736;2022-12-16T06:50:35;29.95;;;15.07;;
30647;SDS011;17683;53.360;9.736;2022-12-16T06:53:20;30.75;;;15.25;;
30647;SDS011;17683;53.360;9.736;2022-12-16T06:56:04;32.00;;;17.67;;
30647;SDS011;17683;53.360;9.736;2022-12-16T07:01:32;26.52;;;14.30;;
30647;SDS011;17683;53.360;9.736;2022-12-16T07:04:16;33.40;;;18.05;;
30647;SDS011;17683;53.360;9.736;2022-12-16T07:07:01;29.13;;;14.70;;
30647;SDS011;17683;53.360;9.736;2022-12-16T07:09:45;28.38;;;15.73;;
30647;SDS011;17683;53.360;9.736;2022-12-16T07:12:29;29.02;;;15.93;;
30647;SDS011;17683;53.360;9.736;2022-12-16T07:15:13;32.83;;;15.73;;
30647;SDS011;17683;53.360;9.736;2022-12-16T07:17:58;28.45;;;16.00;;
30647;SDS011;17683;53.360;9.736;2022-12-16T07:20:42;27.90;;;15.45;;
30647;SDS011;17683;53.360;9.736;2022-12-16T07:23:26;26.75;;;15.55;;
30647;SDS011;17683;53.360;9.736;2022-12-16T07:26:10;30.40;;;15.25;;
30647;SDS011;17683;53.360;9.736;2022-12-16T07:28:54;25.20;;;14.57;;
30647;SDS011;17683;53.360;9.736;2022-12-16T07:31:39;29.30;;;15.63;;
30647;SDS011;17683;53.360;9.736;2022-12-16T07:34:23;33.00;;;14.90;;
30647;SDS011;17683;53.360;9.736;2022-12-16T07:37:07;31.67;;;16.05;;
30647;SDS011;17683;53.360;9.736;2022-12-16T07:39:51;31.08;;;16.02;;
30647;SDS011;17683;53.360;9.736;2022-12-16T07:45:20;26.48;;;15.10;;
30647;SDS011;17683;53.360;9.736;2022-12-16T07:50:49;32.97;;;15.35;;
30647;SDS011;17683;53.360;9.736;2022-12-16T07:56:17;26.67;;;14.73;;
30647;SDS011;17683;53.360;9.736;2022-12-16T07:59:02;28.02;;;15.30;;
30647;SDS011;17683;53.360;9.736;2022-12-16T08:01:46;27.50;;;14.90;;
30647;SDS011;17683;53.360;9.736;2022-12-16T08:04:30;36.25;;;16.83;;
30647;SDS011;17683;53.360;9.736;2022-12-16T08:07:14;31.80;;;16.83;;
30647;SDS011;17683;53.360;9.736;2022-12-16T08:09:59;28.42;;;15.48;;
30647;SDS011;17683;53.360;9.736;2022-12-16T08:12:43;26.08;;;13.85;;
30647;SDS011;17683;53.360;9.736;2022-12-16T08:15:27;31.98;;;15.48;;
30647;SDS011;17683;53.360;9.736;2022-12-16T08:18:19;30.13;;;15.88;;
30647;SDS011;17683;53.360;9.736;2022-12-16T08:21:03;31.50;;;15.27;;
30647;SDS011;17683;53.360;9.736;2022-12-16T08:26:32;27.67;;;15.00;;
30647;SDS011;17683;53.360;9.736;2022-12-16T08:29:16;26.45;;;15.55;;
30647;SDS011;17683;53.360;9.736;2022-12-16T08:32:00;25.55;;;15.73;;
30647;SDS011;17683;53.360;9.736;2022-12-16T08:34:44;29.60;;;15.73;;
30647;SDS011;17683;53.360;9.736;2022-12-16T08:37:29;30.70;;;15.32;;
30647;SDS011;17683;53.360;9.736;2022-12-16T08:40:13;25.40;;;16.27;;
30647;SDS011;17683;53.360;9.736;2022-12-16T08:42:57;25.13;;;16.17;;
30647;SDS011;17683;53.360;9.736;2022-12-16T08:45:41;31.40;;;17.15;;
30647;SDS011;17683;53.360;9.736;2022-12-16T08:48:26;29.67;;;16.42;;
30647;SDS011;17683;53.360;9.736;2022-12-16T08:53:54;28.45;;;15.48;;
30647;SDS011;17683;53.360;9.736;2022-12-16T08:56:38;31.80;;;17.73;;
30647;SDS011;17683;53.360;9.736;2022-12-16T08:59:23;33.88;;;17.98;;
30647;SDS011;17683;53.360;9.736;2022-12-16T09:02:08;33.55;;;18.27;;
30647;SDS011;17683;53.360;9.736;2022-12-16T09:04:53;34.88;;;19.95;;
30647;SDS011;17683;53.360;9.736;2022-12-16T09:10:35;32.15;;;19.15;;
30647;SDS011;17683;53.360;9.736;2022-12-16T09:13:20;34.17;;;19.55;;
30647;SDS011;17683;53.360;9.736;2022-12-16T09:16:04;36.17;;;19.98;;
30647;SDS011;17683;53.360;9.736;2022-12-16T09:18:48;39.05;;;19.80;;
30647;SDS011;17683;53.360;9.736;2022-12-16T09:21:32;38.67;;;21.05;;
30647;SDS011;17683;53.360;9.736;2022-12-16T09:24:17;38.45;;;20.23;;
30647;SDS011;17683;53.360;9.736;2022-12-16T09:27:01;39.90;;;23.65;;
30647;SDS011;17683;53.360;9.736;2022-12-16T09:29:45;41.92;;;21.70;;
30647;SDS011;17683;53.360;9.736;2022-12-16T09:32:29;37.15;;;21.38;;
30647;SDS011;17683;53.360;9.736;2022-12-16T09:35:14;40.35;;;21.02;;
30647;SDS011;17683;53.360;9.736;2022-12-16T09:37:58;39.22;;;22.25;;
30647;SDS011;17683;53.360;9.736;2022-12-16T09:40:42;45.03;;;25.10;;
30647;SDS011;17683;53.360;9.736;2022-12-16T09:49:44;43.05;;;23.60;;
30647;SDS011;17683;53.360;9.736;2022-12-16T09:53:03;38.47;;;20.60;;
30647;SDS011;17683;53.360;9.736;2022-12-16T09:55:43;35.30;;;21.25;;
30647;SDS011;17683;53.360;9.736;2022-12-16T09:58:36;36.92;;;21.58;;
30647;SDS011;17683;53.360;9.736;2022-12-16T10:01:25;38.33;;;22.42;;
30647;SDS011;17683;53.360;9.736;2022-12-16T10:04:13;37.25;;;20.52;;
30647;SDS011;17683;53.360;9.736;2022-12-16T10:06:59;44.45;;;22.98;;
30647;SDS011;17683;53.360;9.736;2022-12-16T10:25:36;46.63;;;25.83;;
30647;SDS011;17683;53.360;9.736;2022-12-16T10:28:14;45.25;;;25.90;;
30647;SDS011;17683;53.360;9.736;2022-12-16T10:31:10;43.05;;;24.80;;
30647;SDS011;17683;53.360;9.736;2022-12-16T10:33:56;46.13;;;25.52;;
30647;SDS011;17683;53.360;9.736;2022-12-16T10:36:41;44.60;;;25.48;;
30647;SDS011;17683;53.360;9.736;2022-12-16T10:39:30;46.05;;;26.35;;
30647;SDS011;17683;53.360;9.736;2022-12-16T10:42:21;52.00;;;25.92;;
30647;SDS011;17683;53.360;9.736;2022-12-16T10:45:16;51.08;;;25.77;;
30647;SDS011;17683;53.360;9.736;2022-12-16T10:48:09;57.42;;;29.42;;
30647;SDS011;17683;53.360;9.736;2022-12-16T10:50:53;44.60;;;26.63;;
30647;SDS011;17683;53.360;9.736;2022-12-16T10:53:38;48.42;;;27.17;;
30647;SDS011;17683;53.360;9.736;2022-12-16T10:59:09;50.05;;;25.35;;
30647;SDS011;17683;53.360;9.736;2022-12-16T11:02:02;48.33;;;25.95;;
30647;SDS011;17683;53.360;9.736;2022-12-16T11:04:46;48.72;;;26.90;;
30647;SDS011;17683;53.360;9.736;2022-12-16T11:07:33;45.97;;;26.35;;
30647;SDS011;17683;53.360;9.736;2022-12-16T11:10:39;54.10;;;27.40;;
30647;SDS011;17683;53.360;9.736;2022-12-16T11:13:29;55.05;;;28.95;;
30647;SDS011;17683;53.360;9.736;2022-12-16T11:16:20;43.63;;;26.02;;
30647;SDS011;17683;53.360;9.736;2022-12-16T11:22:21;50.35;;;27.20;;
30647;SDS011;17683;53.360;9.736;2022-12-16T11:25:16;47.60;;;26.45;;
30647;SDS011;17683;53.360;9.736;2022-12-16T11:28:15;46.80;;;27.08;;
30647;SDS011;17683;53.360;9.736;2022-12-16T11:31:07;49.20;;;26.60;;
30647;SDS011;17683;53.360;9.736;2022-12-16T11:33:57;44.85;;;26.17;;
30647;SDS011;17683;53.360;9.736;2022-12-16T11:36:42;50.25;;;26.17;;
30647;SDS011;17683;53.360;9.736;2022-12-16T11:39:28;47.38;;;26.38;;
30647;SDS011;17683;53.360;9.736;2022-12-16T11:42:23;49.83;;;26.83;;
30647;SDS011;17683;53.360;9.736;2022-12-16T11:45:13;43.97;;;25.00;;
30647;SDS011;17683;53.360;9.736;2022-12-16T11:48:07;45.65;;;25.48;;
30647;SDS011;17683;53.360;9.736;2022-12-16T11:50:57;48.03;;;25.52;;
30647;SDS011;17683;53.360;9.736;2022-12-16T11:56:43;48.10;;;27.88;;
30647;SDS011;17683;53.360;9.736;2022-12-16T11:59:41;47.20;;;27.25;;
30647;SDS011;17683;53.360;9.736;2022-12-16T12:05:37;54.33;;;27.52;;
30647;SDS011;17683;53.360;9.736;2022-12-16T12:08:46;45.72;;;27.23;;
30647;SDS011;17683;53.360;9.736;2022-12-16T12:14:34;48.60;;;27.83;;
30647;SDS011;17683;53.360;9.736;2022-12-16T12:17:32;46.03;;;27.08;;
30647;SDS011;17683;53.360;9.736;2022-12-16T12:20:37;47.20;;;26.70;;
30647;SDS011;17683;53.360;9.736;2022-12-16T12:27:07;42.38;;;25.15;;
30647;SDS011;17683;53.360;9.736;2022-12-16T12:36:01;46.92;;;26.98;;
30647;SDS011;17683;53.360;9.736;2022-12-16T12:42:01;45.13;;;25.65;;
30647;SDS011;17683;53.360;9.736;2022-12-16T12:48:17;43.75;;;25.60;;
30647;SDS011;17683;53.360;9.736;2022-12-16T12:51:21;43.03;;;24.95;;
30647;SDS011;17683;53.360;9.736;2022-12-16T12:54:27;50.60;;;25.08;;
30647;SDS011;17683;53.360;9.736;2022-12-16T12:57:25;45.42;;;27.23;;
30647;SDS011;17683;53.360;9.736;2022-12-16T13:00:16;49.35;;;26.73;;
30647;SDS011;17683;53.360;9.736;2022-12-16T13:03:10;44.20;;;24.15;;
30647;SDS011;17683;53.360;9.736;2022-12-16T13:06:00;46.22;;;26.05;;
30647;SDS011;17683;53.360;9.736;2022-12-16T13:11:32;50.08;;;28.13;;
30647;SDS011;17683;53.360;9.736;2022-12-16T13:17:19;47.92;;;26.42;;
30647;SDS011;17683;53.360;9.736;2022-12-16T13:26:10;49.95;;;27.42;;
30647;SDS011;17683;53.360;9.736;2022-12-16T13:29:08;52.15;;;28.02;;
30647;SDS011;17683;53.360;9.736;2022-12-16T13:34:59;47.80;;;26.52;;
30647;SDS011;17683;53.360;9.736;2022-12-16T13:40:48;44.45;;;26.10;;
30647;SDS011;17683;53.360;9.736;2022-12-16T13:43:47;49.58;;;28.10;;
30647;SDS011;17683;53.360;9.736;2022-12-16T13:46:39;46.55;;;27.40;;
30647;SDS011;17683;53.360;9.736;2022-12-16T13:55:36;46.22;;;27.52;;
30647;SDS011;17683;53.360;9.736;2022-12-16T13:58:35;54.20;;;28.38;;
30647;SDS011;17683;53.360;9.736;2022-12-16T14:01:28;52.33;;;29.38;;
30647;SDS011;17683;53.360;9.736;2022-12-16T14:05:02;47.38;;;27.10;;
30647;SDS011;17683;53.360;9.736;2022-12-16T14:07:32;40.50;;;24.77;;
30647;SDS011;17683;53.360;9.736;2022-12-16T14:13:57;52.60;;;28.10;;
30647;SDS011;17683;53.360;9.736;2022-12-16T14:22:50;47.60;;;27.05;;
30647;SDS011;17683;53.360;9.736;2022-12-16T14:26:13;45.30;;;27.20;;
30647;SDS011;17683;53.360;9.736;2022-12-16T14:28:59;48.78;;;27.40;;
30647;SDS011;17683;53.360;9.736;2022-12-16T14:31:46;44.83;;;25.95;;
30647;SDS011;17683;53.360;9.736;2022-12-16T14:34:34;48.75;;;27.13;;
30647;SDS011;17683;53.360;9.736;2022-12-16T14:37:33;44.80;;;26.85;;
30647;SDS011;17683;53.360;9.736;2022-12-16T14:40:23;46.28;;;26.55;;
30647;SDS011;17683;53.360;9.736;2022-12-16T14:43:15;42.15;;;25.27;;
30647;SDS011;17683;53.360;9.736;2022-12-16T14:46:04;44.75;;;25.65;;
30647;SDS011;17683;53.360;9.736;2022-12-16T14:48:58;46.90;;;25.90;;
30647;SDS011;17683;53.360;9.736;2022-12-16T14:51:59;44.28;;;26.95;;
30647;SDS011;17683;53.360;9.736;2022-12-16T14:54:43;55.42;;;27.75;;
30647;SDS011;17683;53.360;9.736;2022-12-16T14:57:29;43.95;;;26.48;;
30647;SDS011;17683;53.360;9.736;2022-12-16T15:00:21;43.70;;;27.00;;
30647;SDS011;17683;53.360;9.736;2022-12-16T15:03:20;39.90;;;24.27;;
30647;SDS011;17683;53.360;9.736;2022-12-16T15:06:23;42.55;;;25.23;;
30647;SDS011;17683;53.360;9.736;2022-12-16T15:09:17;45.05;;;25.38;;
30647;SDS011;17683;53.360;9.736;2022-12-16T15:12:13;44.42;;;25.98;;
30647;SDS011;17683;53.360;9.736;2022-12-16T15:15:02;43.05;;;24.15;;
30647;SDS011;17683;53.360;9.736;2022-12-16T15:17:50;43.90;;;25.92;;
30647;SDS011;17683;53.360;9.736;2022-12-16T15:20:41;44.72;;;26.13;;
30647;SDS011;17683;53.360;9.736;2022-12-16T15:23:32;43.83;;;25.33;;
30647;SDS011;17683;53.360;9.736;2022-12-16T15:26:22;43.03;;;25.40;;
30647;SDS011;17683;53.360;9.736;2022-12-16T15:35:08;45.67;;;24.70;;
30647;SDS011;17683;53.360;9.736;2022-12-16T15:41:02;44.55;;;26.13;;
30647;SDS011;17683;53.360;9.736;2022-12-16T15:43:48;39.75;;;24.15;;
30647;SDS011;17683;53.360;9.736;2022-12-16T15:46:32;38.13;;;24.38;;
30647;SDS011;17683;53.360;9.736;2022-12-16T15:49:19;45.95;;;26.20;;
30647;SDS011;17683;53.360;9.736;2022-12-16T15:55:28;44.35;;;24.73;;
30647;SDS011;17683;53.360;9.736;2022-12-16T15:58:26;47.47;;;26.98;;
30647;SDS011;17683;53.360;9.736;2022-12-16T16:01:14;45.78;;;24.17;;
30647;SDS011;17683;53.360;9.736;2022-12-16T16:04:03;48.00;;;25.08;;
30647;SDS011;17683;53.360;9.736;2022-12-16T16:07:26;39.03;;;23.08;;
30647;SDS011;17683;53.360;9.736;2022-12-16T16:10:18;40.55;;;23.15;;
30647;SDS011;17683;53.360;9.736;2022-12-16T16:13:04;47.25;;;25.48;;
30647;SDS011;17683;53.360;9.736;2022-12-16T16:15:49;41.35;;;24.42;;
30647;SDS011;17683;53.360;9.736;2022-12-16T16:18:34;43.38;;;24.25;;
30647;SDS011;17683;53.360;9.736;2022-12-16T16:21:19;46.40;;;25.40;;
30647;SDS011;17683;53.360;9.736;2022-12-16T16:24:03;42.45;;;23.42;;
30647;SDS011;17683;53.360;9.736;2022-12-16T16:26:48;43.67;;;23.33;;
30647;SDS011;17683;53.360;9.736;2022-12-16T16:29:32;43.03;;;23.58;;
30647;SDS011;17683;53.360;9.736;2022-12-16T16:32:16;44.60;;;23.63;;
30647;SDS011;17683;53.360;9.736;2022-12-16T16:35:00;42.30;;;25.10;;
30647;SDS011;17683;53.360;9.736;2022-12-16T16:37:45;40.65;;;23.55;;
30647;SDS011;17683;53.360;9.736;2022-12-16T16:40:42;41.22;;;24.00;;
30647;SDS011;17683;53.360;9.736;2022-12-16T16:43:27;45.28;;;25.30;;
30647;SDS011;17683;53.360;9.736;2022-12-16T16:49:02;42.85;;;26.98;;
30647;SDS011;17683;53.360;9.736;2022-12-16T16:51:47;49.75;;;27.85;;
30647;SDS011;17683;53.360;9.736;2022-12-16T16:54:33;44.20;;;27.92;;
30647;SDS011;17683;53.360;9.736;2022-12-16T16:57:25;49.20;;;28.88;;
30647;SDS011;17683;53.360;9.736;2022-12-16T17:00:14;56.58;;;32.58;;
30647;SDS011;17683;53.360;9.736;2022-12-16T17:05:42;47.88;;;29.92;;
30647;SDS011;17683;53.360;9.736;2022-12-16T17:08:27;54.00;;;30.55;;
30647;SDS011;17683;53.360;9.736;2022-12-16T17:11:15;54.15;;;31.15;;
30647;SDS011;17683;53.360;9.736;2022-12-16T17:14:04;56.83;;;31.05;;
30647;SDS011;17683;53.360;9.736;2022-12-16T17:16:48;52.55;;;31.05;;
30647;SDS011;17683;53.360;9.736;2022-12-16T17:19:32;45.67;;;29.10;;
30647;SDS011;17683;53.360;9.736;2022-12-16T17:22:17;53.05;;;30.95;;
30647;SDS011;17683;53.360;9.736;2022-12-16T17:25:01;59.72;;;31.52;;
30647;SDS011;17683;53.360;9.736;2022-12-16T17:27:45;47.78;;;29.85;;
30647;SDS011;17683;53.360;9.736;2022-12-16T17:30:30;58.42;;;32.60;;
30647;SDS011;17683;53.360;9.736;2022-12-16T17:33:14;49.25;;;29.55;;
30647;SDS011;17683;53.360;9.736;2022-12-16T17:35:58;58.33;;;30.60;;
30647;SDS011;17683;53.360;9.736;2022-12-16T17:38:43;50.13;;;28.75;;
30647;SDS011;17683;53.360;9.736;2022-12-16T17:41:29;45.58;;;28.40;;
30647;SDS011;17683;53.360;9.736;2022-12-16T17:44:15;41.70;;;24.90;;
30647;SDS011;17683;53.360;9.736;2022-12-16T17:47:00;49.53;;;26.52;;
30647;SDS011;17683;53.360;9.736;2022-12-16T17:49:45;47.78;;;27.23;;
30647;SDS011;17683;53.360;9.736;2022-12-16T17:52:29;42.30;;;24.98;;
30647;SDS011;17683;53.360;9.736;2022-12-16T17:55:14;47.53;;;26.30;;
30647;SDS011;17683;53.360;9.736;2022-12-16T17:57:58;45.85;;;25.52;;
30647;SDS011;17683;53.360;9.736;2022-12-16T18:00:42;43.85;;;26.13;;
30647;SDS011;17683;53.360;9.736;2022-12-16T18:06:11;42.92;;;24.98;;
30647;SDS011;17683;53.360;9.736;2022-12-16T18:08:55;43.38;;;24.27;;
30647;SDS011;17683;53.360;9.736;2022-12-16T18:11:40;49.83;;;28.02;;
30647;SDS011;17683;53.360;9.736;2022-12-16T18:14:24;52.92;;;29.35;;
30647;SDS011;17683;53.360;9.736;2022-12-16T18:17:08;44.63;;;26.13;;
30647;SDS011;17683;53.360;9.736;2022-12-16T18:19:52;53.08;;;27.15;;
30647;SDS011;17683;53.360;9.736;2022-12-16T18:22:36;47.58;;;28.30;;
30647;SDS011;17683;53.360;9.736;2022-12-16T18:25:20;47.67;;;26.67;;
30647;SDS011;17683;53.360;9.736;2022-12-16T18:28:05;49.58;;;27.35;;
30647;SDS011;17683;53.360;9.736;2022-12-16T18:30:49;43.38;;;26.75;;
30647;SDS011;17683;53.360;9.736;2022-12-16T18:33:33;52.20;;;28.13;;
30647;SDS011;17683;53.360;9.736;2022-12-16T18:36:17;59.28;;;29.45;;
30647;SDS011;17683;53.360;9.736;2022-12-16T18:39:02;52.22;;;28.67;;
30647;SDS011;17683;53.360;9.736;2022-12-16T18:41:46;47.95;;;30.38;;
30647;SDS011;17683;53.360;9.736;2022-12-16T18:44:31;46.33;;;28.45;;
30647;SDS011;17683;53.360;9.736;2022-12-16T18:47:16;60.75;;;32.55;;
30647;SDS011;17683;53.360;9.736;2022-12-16T18:50:01;69.82;;;35.75;;
30647;SDS011;17683;53.360;9.736;2022-12-16T18:52:48;58.95;;;32.67;;
30647;SDS011;17683;53.360;9.736;2022-12-16T18:58:17;60.30;;;32.47;;
30647;SDS011;17683;53.360;9.736;2022-12-16T19:06:31;67.05;;;34.88;;
30647;SDS011;17683;53.360;9.736;2022-12-16T19:09:15;62.40;;;33.47;;
30647;SDS011;17683;53.360;9.736;2022-12-16T19:11:59;61.63;;;35.33;;